Aviation Digital Data Service (ADDS)

Output produced by METARs form (1124 UTC 19 February 2019)
found at http://www.aviationweather.gov/metar/data/
 
Forecast for: LTBA (ISTANBUL/ATATURK, TR)
Text: TAF LTBA 191040Z 1912/2018 04006KT CAVOK
Forecast period: 1200 UTC 19 February 2019 to 0400 UTC 20 February 2019
Forecast type: FROM: standard forecast or significant change
Winds: from the NE (40 degrees) at 7 MPH (6 knots; 3.1 m/s)
Visibility: 6 or more miles 10+ km)
Ceiling: unknown
Clouds: missing
Weather: NSW  (no significant weather)
Text: PROB40 2000/2004 4000 BR
Forecast period: 0000 to 0400 UTC 20 February 2019
Forecast type: PROBABLE: 40 percent likelihood of the following during this time
Visibility: 2.49 miles (4.01 km)
Ceiling: unknown
Clouds: missing
Weather: BR  (mist)
Text: BECMG 2004/2007 22010KT
Forecast period: 0400 to 1800 UTC 20 February 2019
Forecast type: BECOMING: Conditions expected to become as follows by 0700 UTC 20 February 2019
Winds: from the SW (220 degrees) at 12 MPH (10 knots; 5.1 m/s)
Visibility: 6 or more miles 10+ km)
Ceiling: unknown
Clouds: missing
Weather: NSW  (no significant weather)